sensor_id;sensor_type;location;lat;lon;timestamp;temperature;humidity
4749;DHT22;2388;53.582;9.962;2023-06-24T00:00:58;18.10;99.90
4749;DHT22;2388;53.582;9.962;2023-06-24T00:03:24;18.10;99.90
4749;DHT22;2388;53.582;9.962;2023-06-24T00:05:49;18.00;99.90
4749;DHT22;2388;53.582;9.962;2023-06-24T00:08:16;17.90;99.90
4749;DHT22;2388;53.582;9.962;2023-06-24T00:10:45;17.90;99.90
4749;DHT22;2388;53.582;9.962;2023-06-24T00:13:12;17.90;99.90
4749;DHT22;2388;53.582;9.962;2023-06-24T00:15:37;17.90;99.90
4749;DHT22;2388;53.582;9.962;2023-06-24T00:18:10;17.90;99.90
4749;DHT22;2388;53.582;9.962;2023-06-24T00:20:36;17.90;99.90
4749;DHT22;2388;53.582;9.962;2023-06-24T00:23:02;17.90;99.90
4749;DHT22;2388;53.582;9.962;2023-06-24T00:25:29;17.90;99.90
4749;DHT22;2388;53.582;9.962;2023-06-24T00:27:54;17.90;99.90
4749;DHT22;2388;53.582;9.962;2023-06-24T00:30:20;17.90;99.90
4749;DHT22;2388;53.582;9.962;2023-06-24T00:32:45;17.80;99.90
4749;DHT22;2388;53.582;9.962;2023-06-24T00:35:11;17.80;99.90
4749;DHT22;2388;53.582;9.962;2023-06-24T00:37:37;17.70;99.90
4749;DHT22;2388;53.582;9.962;2023-06-24T00:40:04;17.70;99.90
4749;DHT22;2388;53.582;9.962;2023-06-24T00:42:30;17.70;99.90
4749;DHT22;2388;53.582;9.962;2023-06-24T00:44:56;17.70;99.90
4749;DHT22;2388;53.582;9.962;2023-06-24T00:47:21;17.70;99.90
4749;DHT22;2388;53.582;9.962;2023-06-24T00:49:47;17.70;99.90
4749;DHT22;2388;53.582;9.962;2023-06-24T00:52:13;17.70;99.90
4749;DHT22;2388;53.582;9.962;2023-06-24T00:54:44;17.70;99.90
4749;DHT22;2388;53.582;9.962;2023-06-24T00:57:10;17.70;99.90
4749;DHT22;2388;53.582;9.962;2023-06-24T00:59:36;17.70;99.90
4749;DHT22;2388;53.582;9.962;2023-06-24T01:02:03;17.60;99.90
4749;DHT22;2388;53.582;9.962;2023-06-24T01:04:30;17.60;99.90
4749;DHT22;2388;53.582;9.962;2023-06-24T01:06:57;17.60;99.90
4749;DHT22;2388;53.582;9.962;2023-06-24T01:09:23;17.50;99.90
4749;DHT22;2388;53.582;9.962;2023-06-24T01:11:49;17.50;99.90
4749;DHT22;2388;53.582;9.962;2023-06-24T01:14:15;17.50;99.90
4749;DHT22;2388;53.582;9.962;2023-06-24T01:19:44;17.60;99.90
4749;DHT22;2388;53.582;9.962;2023-06-24T01:37:08;17.40;99.90
4749;DHT22;2388;53.582;9.962;2023-06-24T01:39:40;17.40;99.90
4749;DHT22;2388;53.582;9.962;2023-06-24T01:42:10;17.40;99.90
4749;DHT22;2388;53.582;9.962;2023-06-24T01:44:38;17.40;99.90
4749;DHT22;2388;53.582;9.962;2023-06-24T01:47:05;17.30;99.90
4749;DHT22;2388;53.582;9.962;2023-06-24T01:49:32;17.30;99.90
4749;DHT22;2388;53.582;9.962;2023-06-24T01:51:59;17.30;99.90
4749;DHT22;2388;53.582;9.962;2023-06-24T01:54:29;17.30;99.90
4749;DHT22;2388;53.582;9.962;2023-06-24T01:56:57;17.20;99.90
4749;DHT22;2388;53.582;9.962;2023-06-24T01:59:25;17.20;99.90
4749;DHT22;2388;53.582;9.962;2023-06-24T02:01:53;17.30;99.90
4749;DHT22;2388;53.582;9.962;2023-06-24T02:04:20;17.20;99.90
4749;DHT22;2388;53.582;9.962;2023-06-24T02:06:46;17.20;99.90
4749;DHT22;2388;53.582;9.962;2023-06-24T02:09:15;17.10;99.90
4749;DHT22;2388;53.582;9.962;2023-06-24T02:11:43;17.10;99.90
4749;DHT22;2388;53.582;9.962;2023-06-24T02:14:09;17.10;99.90
4749;DHT22;2388;53.582;9.962;2023-06-24T02:16:36;17.10;99.90
4749;DHT22;2388;53.582;9.962;2023-06-24T02:19:03;17.10;99.90
4749;DHT22;2388;53.582;9.962;2023-06-24T02:21:30;17.00;99.90
4749;DHT22;2388;53.582;9.962;2023-06-24T02:23:56;17.10;99.90
4749;DHT22;2388;53.582;9.962;2023-06-24T02:26:23;17.00;99.90
4749;DHT22;2388;53.582;9.962;2023-06-24T02:28:49;17.00;99.90
4749;DHT22;2388;53.582;9.962;2023-06-24T02:31:15;17.00;99.90
4749;DHT22;2388;53.582;9.962;2023-06-24T02:33:41;17.00;99.90
4749;DHT22;2388;53.582;9.962;2023-06-24T02:36:07;17.00;99.90
4749;DHT22;2388;53.582;9.962;2023-06-24T02:38:33;17.00;99.90
4749;DHT22;2388;53.582;9.962;2023-06-24T02:40:59;17.00;99.90
4749;DHT22;2388;53.582;9.962;2023-06-24T02:43:25;16.90;99.90
4749;DHT22;2388;53.582;9.962;2023-06-24T02:45:52;16.90;99.90
4749;DHT22;2388;53.582;9.962;2023-06-24T02:48:20;16.90;99.90
4749;DHT22;2388;53.582;9.962;2023-06-24T02:50:46;16.90;99.90
4749;DHT22;2388;53.582;9.962;2023-06-24T02:53:13;16.90;99.90
4749;DHT22;2388;53.582;9.962;2023-06-24T02:55:40;16.80;99.90
4749;DHT22;2388;53.582;9.962;2023-06-24T02:58:06;16.80;99.90
4749;DHT22;2388;53.582;9.962;2023-06-24T03:00:32;16.80;99.90
4749;DHT22;2388;53.582;9.962;2023-06-24T03:03:03;16.80;99.90
4749;DHT22;2388;53.582;9.962;2023-06-24T03:05:30;16.80;99.90
4749;DHT22;2388;53.582;9.962;2023-06-24T03:07:57;16.70;99.90
4749;DHT22;2388;53.582;9.962;2023-06-24T03:10:25;16.80;99.90
4749;DHT22;2388;53.582;9.962;2023-06-24T03:12:51;16.80;99.90
4749;DHT22;2388;53.582;9.962;2023-06-24T03:15:17;16.80;99.90
4749;DHT22;2388;53.582;9.962;2023-06-24T03:17:43;16.80;99.90
4749;DHT22;2388;53.582;9.962;2023-06-24T03:20:09;16.80;99.90
4749;DHT22;2388;53.582;9.962;2023-06-24T03:22:36;16.70;99.90
4749;DHT22;2388;53.582;9.962;2023-06-24T03:25:02;16.70;99.90
4749;DHT22;2388;53.582;9.962;2023-06-24T03:27:28;16.70;99.90
4749;DHT22;2388;53.582;9.962;2023-06-24T03:29:53;16.80;99.90
4749;DHT22;2388;53.582;9.962;2023-06-24T03:32:19;16.70;99.90
4749;DHT22;2388;53.582;9.962;2023-06-24T03:34:44;16.70;99.90
4749;DHT22;2388;53.582;9.962;2023-06-24T03:37:10;16.80;99.90
4749;DHT22;2388;53.582;9.962;2023-06-24T03:39:35;16.80;99.90
4749;DHT22;2388;53.582;9.962;2023-06-24T03:42:01;16.80;99.90
4749;DHT22;2388;53.582;9.962;2023-06-24T03:44:26;16.80;99.90
4749;DHT22;2388;53.582;9.962;2023-06-24T03:46:52;16.80;99.90
4749;DHT22;2388;53.582;9.962;2023-06-24T03:49:17;16.70;99.90
4749;DHT22;2388;53.582;9.962;2023-06-24T03:51:43;16.70;99.90
4749;DHT22;2388;53.582;9.962;2023-06-24T03:54:09;16.80;99.90
4749;DHT22;2388;53.582;9.962;2023-06-24T03:56:35;16.70;99.90
4749;DHT22;2388;53.582;9.962;2023-06-24T03:59:00;16.80;99.90
4749;DHT22;2388;53.582;9.962;2023-06-24T04:01:26;16.80;99.90
4749;DHT22;2388;53.582;9.962;2023-06-24T04:03:51;16.80;99.90
4749;DHT22;2388;53.582;9.962;2023-06-24T04:06:17;16.80;99.90
4749;DHT22;2388;53.582;9.962;2023-06-24T04:08:42;16.90;99.90
4749;DHT22;2388;53.582;9.962;2023-06-24T04:11:14;16.90;99.90
4749;DHT22;2388;53.582;9.962;2023-06-24T04:13:39;16.90;99.90
4749;DHT22;2388;53.582;9.962;2023-06-24T04:16:05;17.00;99.90
4749;DHT22;2388;53.582;9.962;2023-06-24T04:18:30;17.00;99.90
4749;DHT22;2388;53.582;9.962;2023-06-24T04:20:56;16.90;99.90
4749;DHT22;2388;53.582;9.962;2023-06-24T04:23:22;16.90;99.90
4749;DHT22;2388;53.582;9.962;2023-06-24T04:25:48;17.00;99.90
4749;DHT22;2388;53.582;9.962;2023-06-24T04:28:13;17.00;99.90
4749;DHT22;2388;53.582;9.962;2023-06-24T04:30:39;17.10;99.90
4749;DHT22;2388;53.582;9.962;2023-06-24T04:33:05;17.10;99.90
4749;DHT22;2388;53.582;9.962;2023-06-24T04:35:30;17.10;99.90
4749;DHT22;2388;53.582;9.962;2023-06-24T04:37:56;17.10;99.90
4749;DHT22;2388;53.582;9.962;2023-06-24T04:40:21;17.10;99.90
4749;DHT22;2388;53.582;9.962;2023-06-24T04:42:47;17.20;99.90
4749;DHT22;2388;53.582;9.962;2023-06-24T04:45:13;17.20;99.90
4749;DHT22;2388;53.582;9.962;2023-06-24T04:47:38;17.20;99.90
4749;DHT22;2388;53.582;9.962;2023-06-24T04:50:04;17.20;99.90
4749;DHT22;2388;53.582;9.962;2023-06-24T04:52:30;17.20;99.90
4749;DHT22;2388;53.582;9.962;2023-06-24T04:54:55;17.20;99.90
4749;DHT22;2388;53.582;9.962;2023-06-24T04:57:31;17.20;99.90
4749;DHT22;2388;53.582;9.962;2023-06-24T04:59:57;17.20;99.90
4749;DHT22;2388;53.582;9.962;2023-06-24T05:02:23;17.30;99.90
4749;DHT22;2388;53.582;9.962;2023-06-24T05:04:49;17.30;99.90
4749;DHT22;2388;53.582;9.962;2023-06-24T05:07:15;17.30;99.90
4749;DHT22;2388;53.582;9.962;2023-06-24T05:09:41;17.40;99.90
4749;DHT22;2388;53.582;9.962;2023-06-24T05:12:08;17.30;99.90
4749;DHT22;2388;53.582;9.962;2023-06-24T05:14:34;17.30;99.90
4749;DHT22;2388;53.582;9.962;2023-06-24T05:17:00;17.40;99.90
4749;DHT22;2388;53.582;9.962;2023-06-24T05:19:26;17.40;99.90
4749;DHT22;2388;53.582;9.962;2023-06-24T05:21:51;17.40;99.90
4749;DHT22;2388;53.582;9.962;2023-06-24T05:24:17;17.40;99.90
4749;DHT22;2388;53.582;9.962;2023-06-24T05:26:46;17.50;99.90
4749;DHT22;2388;53.582;9.962;2023-06-24T05:29:12;17.50;99.90
4749;DHT22;2388;53.582;9.962;2023-06-24T05:31:38;17.60;99.90
4749;DHT22;2388;53.582;9.962;2023-06-24T05:34:03;17.60;99.90
4749;DHT22;2388;53.582;9.962;2023-06-24T05:36:29;17.60;99.90
4749;DHT22;2388;53.582;9.962;2023-06-24T05:38:54;17.60;99.90
4749;DHT22;2388;53.582;9.962;2023-06-24T05:41:19;17.70;99.90
4749;DHT22;2388;53.582;9.962;2023-06-24T05:43:45;17.70;99.90
4749;DHT22;2388;53.582;9.962;2023-06-24T05:46:11;17.70;99.90
4749;DHT22;2388;53.582;9.962;2023-06-24T05:48:37;17.70;99.90
4749;DHT22;2388;53.582;9.962;2023-06-24T05:51:02;17.70;99.90
4749;DHT22;2388;53.582;9.962;2023-06-24T05:53:28;17.70;99.90
4749;DHT22;2388;53.582;9.962;2023-06-24T05:55:54;17.70;99.90
4749;DHT22;2388;53.582;9.962;2023-06-24T05:58:19;17.80;99.90
4749;DHT22;2388;53.582;9.962;2023-06-24T06:00:45;17.80;99.90
4749;DHT22;2388;53.582;9.962;2023-06-24T06:03:10;17.80;99.90
4749;DHT22;2388;53.582;9.962;2023-06-24T06:05:36;17.90;99.90
4749;DHT22;2388;53.582;9.962;2023-06-24T06:08:01;17.90;99.90
4749;DHT22;2388;53.582;9.962;2023-06-24T06:10:27;18.00;99.90
4749;DHT22;2388;53.582;9.962;2023-06-24T06:12:52;18.00;99.90
4749;DHT22;2388;53.582;9.962;2023-06-24T06:15:18;18.00;99.90
4749;DHT22;2388;53.582;9.962;2023-06-24T06:17:45;18.10;99.90
4749;DHT22;2388;53.582;9.962;2023-06-24T06:20:11;18.10;99.90
4749;DHT22;2388;53.582;9.962;2023-06-24T06:22:37;18.20;99.90
4749;DHT22;2388;53.582;9.962;2023-06-24T06:25:05;18.20;99.90
4749;DHT22;2388;53.582;9.962;2023-06-24T06:27:30;18.20;99.90
4749;DHT22;2388;53.582;9.962;2023-06-24T06:29:56;18.30;99.90
4749;DHT22;2388;53.582;9.962;2023-06-24T06:32:21;18.30;99.90
4749;DHT22;2388;53.582;9.962;2023-06-24T06:34:47;18.30;99.90
4749;DHT22;2388;53.582;9.962;2023-06-24T06:37:13;18.40;99.90
4749;DHT22;2388;53.582;9.962;2023-06-24T06:39:38;18.50;99.90
4749;DHT22;2388;53.582;9.962;2023-06-24T06:42:04;18.60;99.90
4749;DHT22;2388;53.582;9.962;2023-06-24T06:44:29;18.70;99.90
4749;DHT22;2388;53.582;9.962;2023-06-24T06:46:55;18.70;99.90
4749;DHT22;2388;53.582;9.962;2023-06-24T06:49:20;18.80;99.90
4749;DHT22;2388;53.582;9.962;2023-06-24T06:51:46;18.80;99.90
4749;DHT22;2388;53.582;9.962;2023-06-24T06:54:11;18.80;99.90
4749;DHT22;2388;53.582;9.962;2023-06-24T06:56:37;18.80;99.90
4749;DHT22;2388;53.582;9.962;2023-06-24T06:59:02;18.80;99.90
4749;DHT22;2388;53.582;9.962;2023-06-24T07:01:28;18.80;99.90
4749;DHT22;2388;53.582;9.962;2023-06-24T07:03:53;18.90;99.90
4749;DHT22;2388;53.582;9.962;2023-06-24T07:06:19;18.90;99.90
4749;DHT22;2388;53.582;9.962;2023-06-24T07:08:44;18.90;99.90
4749;DHT22;2388;53.582;9.962;2023-06-24T07:11:10;18.90;99.90
4749;DHT22;2388;53.582;9.962;2023-06-24T07:13:35;18.90;99.90
4749;DHT22;2388;53.582;9.962;2023-06-24T07:16:01;19.00;99.90
4749;DHT22;2388;53.582;9.962;2023-06-24T07:18:27;19.00;99.90
4749;DHT22;2388;53.582;9.962;2023-06-24T07:20:56;19.00;99.90
4749;DHT22;2388;53.582;9.962;2023-06-24T07:23:22;19.10;99.90
4749;DHT22;2388;53.582;9.962;2023-06-24T07:25:47;19.10;99.90
4749;DHT22;2388;53.582;9.962;2023-06-24T07:30:43;19.20;99.90
4749;DHT22;2388;53.582;9.962;2023-06-24T07:33:09;19.10;99.90
4749;DHT22;2388;53.582;9.962;2023-06-24T07:35:34;19.10;99.90
4749;DHT22;2388;53.582;9.962;2023-06-24T07:38:00;19.10;99.90
4749;DHT22;2388;53.582;9.962;2023-06-24T07:40:26;19.20;99.90
4749;DHT22;2388;53.582;9.962;2023-06-24T07:42:52;19.20;99.90
4749;DHT22;2388;53.582;9.962;2023-06-24T07:45:18;19.20;99.90
4749;DHT22;2388;53.582;9.962;2023-06-24T07:47:43;19.30;99.90
4749;DHT22;2388;53.582;9.962;2023-06-24T07:50:09;19.30;99.90
4749;DHT22;2388;53.582;9.962;2023-06-24T07:52:36;19.30;99.90
4749;DHT22;2388;53.582;9.962;2023-06-24T07:55:02;19.40;99.90
4749;DHT22;2388;53.582;9.962;2023-06-24T07:57:29;19.40;99.90
4749;DHT22;2388;53.582;9.962;2023-06-24T07:59:54;19.50;99.90
4749;DHT22;2388;53.582;9.962;2023-06-24T08:02:21;19.60;99.90
4749;DHT22;2388;53.582;9.962;2023-06-24T08:04:46;19.70;99.90
4749;DHT22;2388;53.582;9.962;2023-06-24T08:07:12;19.70;99.90
4749;DHT22;2388;53.582;9.962;2023-06-24T08:09:37;19.70;99.90
4749;DHT22;2388;53.582;9.962;2023-06-24T08:12:03;19.70;99.90
4749;DHT22;2388;53.582;9.962;2023-06-24T08:14:29;19.60;99.90
4749;DHT22;2388;53.582;9.962;2023-06-24T08:16:54;19.60;99.90
4749;DHT22;2388;53.582;9.962;2023-06-24T08:19:20;19.60;99.90
4749;DHT22;2388;53.582;9.962;2023-06-24T08:21:45;19.70;99.90
4749;DHT22;2388;53.582;9.962;2023-06-24T08:24:11;19.70;99.90
4749;DHT22;2388;53.582;9.962;2023-06-24T08:26:36;19.70;99.90
4749;DHT22;2388;53.582;9.962;2023-06-24T08:29:02;19.70;99.90
4749;DHT22;2388;53.582;9.962;2023-06-24T08:31:28;19.70;99.90
4749;DHT22;2388;53.582;9.962;2023-06-24T08:33:54;19.70;99.90
4749;DHT22;2388;53.582;9.962;2023-06-24T08:36:21;19.70;99.90
4749;DHT22;2388;53.582;9.962;2023-06-24T08:38:47;19.70;99.90
4749;DHT22;2388;53.582;9.962;2023-06-24T08:41:12;19.80;99.90
4749;DHT22;2388;53.582;9.962;2023-06-24T08:43:38;19.80;99.90
4749;DHT22;2388;53.582;9.962;2023-06-24T08:46:05;19.80;99.90
4749;DHT22;2388;53.582;9.962;2023-06-24T08:48:30;19.80;99.90
4749;DHT22;2388;53.582;9.962;2023-06-24T08:50:58;19.80;99.90
4749;DHT22;2388;53.582;9.962;2023-06-24T08:53:26;19.80;99.90
4749;DHT22;2388;53.582;9.962;2023-06-24T08:55:53;19.80;99.90
4749;DHT22;2388;53.582;9.962;2023-06-24T08:58:19;19.90;99.90
4749;DHT22;2388;53.582;9.962;2023-06-24T09:00:45;19.90;99.90
4749;DHT22;2388;53.582;9.962;2023-06-24T09:03:11;20.00;99.90
4749;DHT22;2388;53.582;9.962;2023-06-24T09:05:37;20.00;99.90
4749;DHT22;2388;53.582;9.962;2023-06-24T09:08:02;20.10;99.90
4749;DHT22;2388;53.582;9.962;2023-06-24T09:10:35;20.10;99.90
4749;DHT22;2388;53.582;9.962;2023-06-24T09:13:02;20.10;99.90
4749;DHT22;2388;53.582;9.962;2023-06-24T09:15:34;20.10;99.90
4749;DHT22;2388;53.582;9.962;2023-06-24T09:18:01;20.20;99.90
4749;DHT22;2388;53.582;9.962;2023-06-24T09:20:27;20.20;99.90
4749;DHT22;2388;53.582;9.962;2023-06-24T09:23:01;20.30;99.90
4749;DHT22;2388;53.582;9.962;2023-06-24T09:25:28;20.30;99.90
4749;DHT22;2388;53.582;9.962;2023-06-24T09:27:54;20.40;99.90
4749;DHT22;2388;53.582;9.962;2023-06-24T09:30:21;20.40;99.90
4749;DHT22;2388;53.582;9.962;2023-06-24T09:32:48;20.40;99.90
4749;DHT22;2388;53.582;9.962;2023-06-24T09:35:14;20.50;99.90
4749;DHT22;2388;53.582;9.962;2023-06-24T09:37:41;20.50;99.90
4749;DHT22;2388;53.582;9.962;2023-06-24T09:40:08;20.60;99.90
4749;DHT22;2388;53.582;9.962;2023-06-24T09:42:35;20.60;99.90
4749;DHT22;2388;53.582;9.962;2023-06-24T09:45:05;20.70;99.90
4749;DHT22;2388;53.582;9.962;2023-06-24T09:47:31;20.70;99.90
4749;DHT22;2388;53.582;9.962;2023-06-24T09:49:56;20.70;99.90
4749;DHT22;2388;53.582;9.962;2023-06-24T09:52:22;20.80;99.90
4749;DHT22;2388;53.582;9.962;2023-06-24T09:54:51;20.80;99.90
4749;DHT22;2388;53.582;9.962;2023-06-24T09:57:20;20.80;99.90
4749;DHT22;2388;53.582;9.962;2023-06-24T09:59:50;20.80;99.90
4749;DHT22;2388;53.582;9.962;2023-06-24T10:02:16;20.90;99.90
4749;DHT22;2388;53.582;9.962;2023-06-24T10:04:43;21.00;99.90
4749;DHT22;2388;53.582;9.962;2023-06-24T10:07:10;21.00;99.90
4749;DHT22;2388;53.582;9.962;2023-06-24T10:09:38;21.10;99.90
4749;DHT22;2388;53.582;9.962;2023-06-24T10:12:03;21.20;99.90
4749;DHT22;2388;53.582;9.962;2023-06-24T10:14:30;21.20;99.90
4749;DHT22;2388;53.582;9.962;2023-06-24T10:17:05;21.30;99.90
4749;DHT22;2388;53.582;9.962;2023-06-24T10:19:40;21.30;99.90
4749;DHT22;2388;53.582;9.962;2023-06-24T10:22:10;21.30;99.90
4749;DHT22;2388;53.582;9.962;2023-06-24T10:24:41;21.40;99.90
4749;DHT22;2388;53.582;9.962;2023-06-24T10:27:15;21.50;99.90
4749;DHT22;2388;53.582;9.962;2023-06-24T10:29:45;21.50;99.90
4749;DHT22;2388;53.582;9.962;2023-06-24T10:32:11;21.60;99.90
4749;DHT22;2388;53.582;9.962;2023-06-24T10:37:03;21.70;99.90
4749;DHT22;2388;53.582;9.962;2023-06-24T10:39:35;21.70;99.90
4749;DHT22;2388;53.582;9.962;2023-06-24T10:44:48;21.80;99.90
4749;DHT22;2388;53.582;9.962;2023-06-24T10:47:14;21.80;99.90
4749;DHT22;2388;53.582;9.962;2023-06-24T10:49:40;21.90;99.90
4749;DHT22;2388;53.582;9.962;2023-06-24T10:52:09;21.90;99.90
4749;DHT22;2388;53.582;9.962;2023-06-24T10:54:36;22.00;99.90
4749;DHT22;2388;53.582;9.962;2023-06-24T10:57:03;22.00;99.90
4749;DHT22;2388;53.582;9.962;2023-06-24T10:59:34;22.10;99.90
4749;DHT22;2388;53.582;9.962;2023-06-24T11:02:00;22.10;99.90
4749;DHT22;2388;53.582;9.962;2023-06-24T11:04:25;22.20;99.90
4749;DHT22;2388;53.582;9.962;2023-06-24T11:07:00;22.20;99.90
4749;DHT22;2388;53.582;9.962;2023-06-24T11:09:26;22.30;99.90
4749;DHT22;2388;53.582;9.962;2023-06-24T11:11:52;22.50;99.90
4749;DHT22;2388;53.582;9.962;2023-06-24T11:14:19;22.70;1.00
4749;DHT22;2388;53.582;9.962;2023-06-24T11:16:48;22.70;99.90
4749;DHT22;2388;53.582;9.962;2023-06-24T11:19:14;22.80;99.90
4749;DHT22;2388;53.582;9.962;2023-06-24T11:21:40;22.90;99.90
4749;DHT22;2388;53.582;9.962;2023-06-24T11:24:06;23.00;99.90
4749;DHT22;2388;53.582;9.962;2023-06-24T11:26:32;23.10;99.90
4749;DHT22;2388;53.582;9.962;2023-06-24T11:28:58;23.20;99.90
4749;DHT22;2388;53.582;9.962;2023-06-24T11:31:26;23.30;99.90
4749;DHT22;2388;53.582;9.962;2023-06-24T11:33:53;23.50;99.90
4749;DHT22;2388;53.582;9.962;2023-06-24T11:36:19;23.40;99.90
4749;DHT22;2388;53.582;9.962;2023-06-24T11:38:48;23.60;99.90
4749;DHT22;2388;53.582;9.962;2023-06-24T11:41:14;23.60;99.90
4749;DHT22;2388;53.582;9.962;2023-06-24T11:43:47;23.50;99.90
4749;DHT22;2388;53.582;9.962;2023-06-24T11:48:50;23.50;99.90
4749;DHT22;2388;53.582;9.962;2023-06-24T11:51:16;23.60;99.90
4749;DHT22;2388;53.582;9.962;2023-06-24T11:53:45;23.60;99.90
4749;DHT22;2388;53.582;9.962;2023-06-24T11:56:12;23.70;99.90
4749;DHT22;2388;53.582;9.962;2023-06-24T11:58:38;23.50;99.90
4749;DHT22;2388;53.582;9.962;2023-06-24T12:01:06;23.50;99.90
4749;DHT22;2388;53.582;9.962;2023-06-24T12:03:32;23.40;99.90
4749;DHT22;2388;53.582;9.962;2023-06-24T12:05:59;23.30;99.90
4749;DHT22;2388;53.582;9.962;2023-06-24T12:08:24;23.40;99.90
4749;DHT22;2388;53.582;9.962;2023-06-24T12:10:51;23.40;99.90
4749;DHT22;2388;53.582;9.962;2023-06-24T12:13:16;23.50;99.90
4749;DHT22;2388;53.582;9.962;2023-06-24T12:15:42;23.40;99.90
4749;DHT22;2388;53.582;9.962;2023-06-24T12:18:08;23.40;99.90
4749;DHT22;2388;53.582;9.962;2023-06-24T12:20:35;23.60;99.90
4749;DHT22;2388;53.582;9.962;2023-06-24T12:23:02;23.70;99.90
4749;DHT22;2388;53.582;9.962;2023-06-24T12:25:31;23.50;99.90
4749;DHT22;2388;53.582;9.962;2023-06-24T12:27:57;23.50;99.90
4749;DHT22;2388;53.582;9.962;2023-06-24T12:30:24;23.50;99.90
4749;DHT22;2388;53.582;9.962;2023-06-24T12:32:50;23.50;99.90
4749;DHT22;2388;53.582;9.962;2023-06-24T12:35:16;23.50;99.90
4749;DHT22;2388;53.582;9.962;2023-06-24T12:37:42;23.60;99.90
4749;DHT22;2388;53.582;9.962;2023-06-24T12:40:08;23.50;99.90
4749;DHT22;2388;53.582;9.962;2023-06-24T12:42:33;23.60;99.90
4749;DHT22;2388;53.582;9.962;2023-06-24T12:44:59;23.70;99.90
4749;DHT22;2388;53.582;9.962;2023-06-24T12:47:25;23.70;99.90
4749;DHT22;2388;53.582;9.962;2023-06-24T12:49:51;23.70;99.90
4749;DHT22;2388;53.582;9.962;2023-06-24T12:52:18;23.80;99.90
4749;DHT22;2388;53.582;9.962;2023-06-24T12:54:43;23.80;99.90
4749;DHT22;2388;53.582;9.962;2023-06-24T12:57:09;23.70;99.90
4749;DHT22;2388;53.582;9.962;2023-06-24T12:59:34;23.50;99.90
4749;DHT22;2388;53.582;9.962;2023-06-24T13:02:00;23.40;99.90
4749;DHT22;2388;53.582;9.962;2023-06-24T13:04:26;23.40;99.90
4749;DHT22;2388;53.582;9.962;2023-06-24T13:06:52;23.40;99.90
4749;DHT22;2388;53.582;9.962;2023-06-24T13:09:18;23.40;99.90
4749;DHT22;2388;53.582;9.962;2023-06-24T13:11:43;24.00;99.90
4749;DHT22;2388;53.582;9.962;2023-06-24T13:14:09;24.30;99.90
4749;DHT22;2388;53.582;9.962;2023-06-24T13:16:36;24.40;99.90
4749;DHT22;2388;53.582;9.962;2023-06-24T13:19:01;24.40;99.90
4749;DHT22;2388;53.582;9.962;2023-06-24T13:21:27;24.20;99.90
4749;DHT22;2388;53.582;9.962;2023-06-24T13:23:52;24.10;99.90
4749;DHT22;2388;53.582;9.962;2023-06-24T13:26:18;23.90;99.90
4749;DHT22;2388;53.582;9.962;2023-06-24T13:28:43;24.10;99.90
4749;DHT22;2388;53.582;9.962;2023-06-24T13:31:09;24.40;99.90
4749;DHT22;2388;53.582;9.962;2023-06-24T13:33:34;24.60;99.90
4749;DHT22;2388;53.582;9.962;2023-06-24T13:36:00;24.30;99.90
4749;DHT22;2388;53.582;9.962;2023-06-24T13:38:25;24.10;99.90
4749;DHT22;2388;53.582;9.962;2023-06-24T13:40:51;23.90;99.90
4749;DHT22;2388;53.582;9.962;2023-06-24T13:43:17;24.00;99.90
4749;DHT22;2388;53.582;9.962;2023-06-24T13:45:42;24.30;99.90
4749;DHT22;2388;53.582;9.962;2023-06-24T13:48:08;24.60;99.90
4749;DHT22;2388;53.582;9.962;2023-06-24T13:50:33;24.40;99.90
4749;DHT22;2388;53.582;9.962;2023-06-24T13:52:59;24.20;99.90
4749;DHT22;2388;53.582;9.962;2023-06-24T13:55:25;24.40;99.90
4749;DHT22;2388;53.582;9.962;2023-06-24T13:57:50;24.80;99.90
4749;DHT22;2388;53.582;9.962;2023-06-24T14:00:16;24.90;99.90
4749;DHT22;2388;53.582;9.962;2023-06-24T14:02:42;24.90;99.90
4749;DHT22;2388;53.582;9.962;2023-06-24T14:05:08;24.90;99.90
4749;DHT22;2388;53.582;9.962;2023-06-24T14:07:34;24.80;99.90
4749;DHT22;2388;53.582;9.962;2023-06-24T14:09:59;24.60;99.90
4749;DHT22;2388;53.582;9.962;2023-06-24T14:12:25;24.40;99.90
4749;DHT22;2388;53.582;9.962;2023-06-24T14:14:51;24.40;99.90
4749;DHT22;2388;53.582;9.962;2023-06-24T14:17:16;24.30;99.90
4749;DHT22;2388;53.582;9.962;2023-06-24T14:19:42;24.20;99.90
4749;DHT22;2388;53.582;9.962;2023-06-24T14:22:07;24.00;99.90
4749;DHT22;2388;53.582;9.962;2023-06-24T14:24:33;23.90;99.90
4749;DHT22;2388;53.582;9.962;2023-06-24T14:26:58;23.80;99.90
4749;DHT22;2388;53.582;9.962;2023-06-24T14:29:24;23.80;99.90
4749;DHT22;2388;53.582;9.962;2023-06-24T14:31:51;23.70;99.90
4749;DHT22;2388;53.582;9.962;2023-06-24T14:34:17;23.70;99.90
4749;DHT22;2388;53.582;9.962;2023-06-24T14:36:42;23.70;99.90
4749;DHT22;2388;53.582;9.962;2023-06-24T14:39:08;23.70;99.90
4749;DHT22;2388;53.582;9.962;2023-06-24T14:41:33;23.60;99.90
4749;DHT22;2388;53.582;9.962;2023-06-24T14:43:58;23.50;99.90
4749;DHT22;2388;53.582;9.962;2023-06-24T14:46:24;23.50;99.90
4749;DHT22;2388;53.582;9.962;2023-06-24T14:48:49;23.50;99.90
4749;DHT22;2388;53.582;9.962;2023-06-24T14:51:15;23.50;99.90
4749;DHT22;2388;53.582;9.962;2023-06-24T14:53:41;23.40;99.90
4749;DHT22;2388;53.582;9.962;2023-06-24T14:56:06;23.50;99.90
4749;DHT22;2388;53.582;9.962;2023-06-24T14:58:32;23.50;99.90
4749;DHT22;2388;53.582;9.962;2023-06-24T15:00:57;23.40;99.90
4749;DHT22;2388;53.582;9.962;2023-06-24T15:03:23;23.50;99.90
4749;DHT22;2388;53.582;9.962;2023-06-24T15:05:48;23.60;99.90
4749;DHT22;2388;53.582;9.962;2023-06-24T15:08:13;23.50;99.90
4749;DHT22;2388;53.582;9.962;2023-06-24T15:10:39;23.50;99.90
4749;DHT22;2388;53.582;9.962;2023-06-24T15:13:04;23.50;99.90
4749;DHT22;2388;53.582;9.962;2023-06-24T15:15:31;23.50;99.90
4749;DHT22;2388;53.582;9.962;2023-06-24T15:17:56;23.60;99.90
4749;DHT22;2388;53.582;9.962;2023-06-24T15:20:22;23.50;99.90
4749;DHT22;2388;53.582;9.962;2023-06-24T15:22:47;23.50;99.90
4749;DHT22;2388;53.582;9.962;2023-06-24T15:25:13;23.50;99.90
4749;DHT22;2388;53.582;9.962;2023-06-24T15:27:38;23.60;99.90
4749;DHT22;2388;53.582;9.962;2023-06-24T15:30:04;23.50;99.90
4749;DHT22;2388;53.582;9.962;2023-06-24T15:32:30;23.60;99.90
4749;DHT22;2388;53.582;9.962;2023-06-24T15:34:55;23.50;99.90
4749;DHT22;2388;53.582;9.962;2023-06-24T15:37:21;23.50;99.90
4749;DHT22;2388;53.582;9.962;2023-06-24T15:39:46;23.50;99.90
4749;DHT22;2388;53.582;9.962;2023-06-24T15:42:12;23.50;99.90
4749;DHT22;2388;53.582;9.962;2023-06-24T15:44:37;23.50;99.90
4749;DHT22;2388;53.582;9.962;2023-06-24T15:47:06;23.50;99.90
4749;DHT22;2388;53.582;9.962;2023-06-24T15:49:31;23.50;99.90
4749;DHT22;2388;53.582;9.962;2023-06-24T15:51:57;23.50;99.90
4749;DHT22;2388;53.582;9.962;2023-06-24T15:54:22;23.50;99.90
4749;DHT22;2388;53.582;9.962;2023-06-24T15:56:48;23.50;99.90
4749;DHT22;2388;53.582;9.962;2023-06-24T15:59:13;23.50;99.90
4749;DHT22;2388;53.582;9.962;2023-06-24T16:01:39;23.70;99.90
4749;DHT22;2388;53.582;9.962;2023-06-24T16:04:06;23.70;99.90
4749;DHT22;2388;53.582;9.962;2023-06-24T16:06:32;23.60;99.90
4749;DHT22;2388;53.582;9.962;2023-06-24T16:08:57;23.60;99.90
4749;DHT22;2388;53.582;9.962;2023-06-24T16:11:23;23.60;99.90
4749;DHT22;2388;53.582;9.962;2023-06-24T16:13:48;23.60;99.90
4749;DHT22;2388;53.582;9.962;2023-06-24T16:16:14;23.60;99.90
4749;DHT22;2388;53.582;9.962;2023-06-24T16:18:39;23.60;99.90
4749;DHT22;2388;53.582;9.962;2023-06-24T16:21:05;23.60;99.90
4749;DHT22;2388;53.582;9.962;2023-06-24T16:23:30;23.60;99.90